createdAt,value
2019-01-04T00:00:15.935Z,80.93
2019-01-04T00:01:15.918Z,80.93
2019-01-04T00:02:35.554Z,80.41
2019-01-04T00:03:57.940Z,80.41
2019-01-04T00:04:57.927Z,80.31
2019-01-04T00:05:57.918Z,80.52
2019-01-04T00:06:57.906Z,80.62
2019-01-04T00:07:57.895Z,80.16
2019-01-04T00:08:57.885Z,80.73
2019-01-04T00:09:57.874Z,80.73
2019-01-04T00:10:57.864Z,80.62
2019-01-04T00:11:57.852Z,80.48
2019-01-04T00:12:57.840Z,79.99
2019-01-04T00:13:57.830Z,80.16
2019-01-04T00:14:57.821Z,80.06
2019-01-04T00:15:57.808Z,80.58
2019-01-04T00:16:57.796Z,80.38
2019-01-04T00:17:57.788Z,80.38
2019-01-04T00:18:57.775Z,79.96
2019-01-04T00:19:57.763Z,79.64
2019-01-04T00:20:57.758Z,79.44
2019-01-04T00:21:57.743Z,79.44
2019-01-04T00:22:57.730Z,79.44
2019-01-04T00:23:57.720Z,79.64
2019-01-04T00:24:57.712Z,79.22
2019-01-04T00:25:57.701Z,78.91
2019-01-04T00:26:57.687Z,78.81
2019-01-04T00:27:57.677Z,79.22
2019-01-04T00:28:57.665Z,79.33
2019-01-04T00:29:57.655Z,78.91
2019-01-04T00:30:57.645Z,79.22
2019-01-04T00:31:57.634Z,79.12
2019-01-04T00:32:57.621Z,78.91
2019-01-04T00:33:57.615Z,78.91
2019-01-04T00:34:57.598Z,79.12
2019-01-04T00:35:57.587Z,79.08
2019-01-04T00:36:57.580Z,79.22
2019-01-04T00:37:57.565Z,78.70
2019-01-04T00:38:57.562Z,78.81
2019-01-04T00:39:57.546Z,78.70
2019-01-04T00:40:57.533Z,78.91
2019-01-04T00:41:57.560Z,78.49
2019-01-04T00:42:57.525Z,78.60
2019-01-04T00:43:57.525Z,78.08
2019-01-04T00:44:57.491Z,78.28
2019-01-04T00:45:57.481Z,78.08
2019-01-04T00:46:57.471Z,78.25
2019-01-04T00:47:57.456Z,78.28
2019-01-04T00:48:57.457Z,78.81
2019-01-04T00:49:57.451Z,78.14
2019-01-04T00:50:57.448Z,78.14
2019-01-04T00:51:57.419Z,78.14
2019-01-04T00:52:57.402Z,77.20
2019-01-04T00:53:57.406Z,77.73
2019-01-04T00:54:57.404Z,77.76
2019-01-04T00:55:57.370Z,77.62
2019-01-04T00:56:57.357Z,77.62
2019-01-04T00:57:57.350Z,77.94
2019-01-04T00:58:57.337Z,77.97
2019-01-04T00:59:57.324Z,77.45
2019-01-04T01:00:57.313Z,77.83
2019-01-04T01:01:57.303Z,77.62
2019-01-04T01:02:57.293Z,77.20
2019-01-04T01:03:57.282Z,77.62
2019-01-04T01:04:57.270Z,77.20
2019-01-04T01:05:57.259Z,77.73
2019-01-04T01:06:57.248Z,77.73
2019-01-04T01:07:57.238Z,77.83
2019-01-04T01:08:57.228Z,77.51
2019-01-04T01:09:57.227Z,77.17
2019-01-04T01:10:57.205Z,77.41
2019-01-04T01:11:57.196Z,77.62
2019-01-04T01:12:57.184Z,77.10
2019-01-04T01:13:57.172Z,76.26
2019-01-04T01:14:57.161Z,76.96
2019-01-04T01:15:57.149Z,76.44
2019-01-04T01:16:57.139Z,76.57
2019-01-04T01:17:57.129Z,76.57
2019-01-04T01:18:57.122Z,75.85
2019-01-04T01:19:57.108Z,75.71
2019-01-04T01:20:57.098Z,76.16
2019-01-04T01:21:57.085Z,76.54
2019-01-04T01:22:57.074Z,75.81
2019-01-04T01:23:57.065Z,76.75
2019-01-04T01:24:57.052Z,75.60
2019-01-04T01:25:57.040Z,76.44
2019-01-04T01:26:57.030Z,76.12
2019-01-04T01:27:57.023Z,75.81
2019-01-04T01:28:57.007Z,76.02
2019-01-04T01:29:56.999Z,75.81
2019-01-04T01:30:56.987Z,76.96
2019-01-04T01:31:56.974Z,75.60
2019-01-04T01:32:56.965Z,75.81
2019-01-04T01:33:56.953Z,75.71
2019-01-04T01:34:56.943Z,76.54
2019-01-04T01:35:56.930Z,75.60
2019-01-04T01:37:16.548Z,76.65
2019-01-04T01:38:27.894Z,76.65
2019-01-04T01:39:47.514Z,76.23
2019-01-04T01:41:09.929Z,76.02
2019-01-04T01:42:31.527Z,75.26
2019-01-04T01:43:51.955Z,76.61
2019-01-04T01:44:51.939Z,77.06
2019-01-04T01:45:51.925Z,75.29
2019-01-04T01:46:51.913Z,76.96
2019-01-04T01:47:51.904Z,76.61
2019-01-04T01:48:51.896Z,77.38
2019-01-04T01:49:51.886Z,77.17
2019-01-04T01:50:51.871Z,77.34
2019-01-04T01:51:51.866Z,77.17
2019-01-04T01:52:51.849Z,77.80
2019-01-04T01:53:51.836Z,77.55
2019-01-04T01:54:51.833Z,77.48
2019-01-04T01:55:51.819Z,78.11
2019-01-04T01:56:51.816Z,78.21
2019-01-04T01:57:51.793Z,78.11
2019-01-04T01:58:51.791Z,78.53
2019-01-04T01:59:51.777Z,79.05
2019-01-04T02:00:51.769Z,79.15
2019-01-04T02:01:51.751Z,78.91
2019-01-04T02:02:51.741Z,78.84
2019-01-04T02:03:51.729Z,79.47
2019-01-04T02:04:51.724Z,79.33
2019-01-04T02:05:51.712Z,79.57
2019-01-04T02:06:51.710Z,80.30
2019-01-04T02:07:51.687Z,80.16
2019-01-04T02:08:51.680Z,80.41
2019-01-04T02:09:51.667Z,80.47
2019-01-04T02:10:51.656Z,80.72
2019-01-04T02:11:51.700Z,81.13
2019-01-04T02:12:51.634Z,81.35
2019-01-04T02:13:51.622Z,81.24
2019-01-04T02:14:51.610Z,80.99
2019-01-04T02:15:51.604Z,81.52
2019-01-04T02:16:51.592Z,81.97
2019-01-04T02:17:51.580Z,82.39
2019-01-04T02:18:51.575Z,82.35
2019-01-04T02:19:51.555Z,82.87
2019-01-04T02:20:51.544Z,83.01
2019-01-04T02:21:51.533Z,83.01
2019-01-04T02:22:51.522Z,83.12
2019-01-04T02:23:51.513Z,83.23
2019-01-04T02:24:51.512Z,83.12
2019-01-04T02:25:51.492Z,83.29
2019-01-04T02:26:51.485Z,83.33
2019-01-04T02:27:51.468Z,83.75
2019-01-04T02:28:51.458Z,83.75
2019-01-04T02:29:51.450Z,83.85
2019-01-04T02:30:51.439Z,84.12
2019-01-04T02:31:51.431Z,84.17
2019-01-04T02:32:51.417Z,84.17
2019-01-04T02:33:51.406Z,84.23
2019-01-04T02:34:51.393Z,84.34
2019-01-04T02:35:51.389Z,84.58
2019-01-04T02:36:51.371Z,84.58
2019-01-04T02:37:51.366Z,84.55
2019-01-04T02:38:51.356Z,84.44
2019-01-04T02:39:51.339Z,85.11
2019-01-04T02:40:51.327Z,84.65
2019-01-04T02:41:51.318Z,85.52
2019-01-04T02:42:51.309Z,85.21
2019-01-04T02:43:51.298Z,84.89
2019-01-04T02:44:51.285Z,84.89
2019-01-04T02:45:51.282Z,85.11
2019-01-04T02:46:51.265Z,85.21
2019-01-04T02:47:51.257Z,85.49
2019-01-04T02:48:51.244Z,86.05
2019-01-04T02:49:51.235Z,85.63
2019-01-04T02:50:51.224Z,85.69
2019-01-04T02:51:51.210Z,85.17
2019-01-04T02:52:51.202Z,85.31
2019-01-04T02:53:51.197Z,86.32
2019-01-04T02:54:51.177Z,85.69
2019-01-04T02:55:51.170Z,86.11
2019-01-04T02:56:51.157Z,86.53
2019-01-04T02:57:51.144Z,86.53
2019-01-04T02:58:51.133Z,86.63
2019-01-04T02:59:51.123Z,86.84
2019-01-04T03:00:51.113Z,86.99
2019-01-04T03:01:51.104Z,87.47
2019-01-04T03:02:51.092Z,87.05
2019-01-04T03:03:51.082Z,87.09
2019-01-04T03:04:51.073Z,87.47
2019-01-04T03:05:51.057Z,87.30
2019-01-04T03:06:51.048Z,87.57
2019-01-04T03:07:51.038Z,87.05
2019-01-04T03:08:51.030Z,87.47
2019-01-04T03:09:51.017Z,87.61
2019-01-04T03:10:51.003Z,87.30
2019-01-04T03:11:51.000Z,87.26
2019-01-04T03:12:50.982Z,87.82
2019-01-04T03:13:50.973Z,87.51
2019-01-04T03:14:50.962Z,87.61
2019-01-04T03:15:50.950Z,87.61
2019-01-04T03:16:50.938Z,87.93
2019-01-04T03:17:50.927Z,87.82
2019-01-04T03:18:50.918Z,87.88
2019-01-04T03:19:50.906Z,87.93
2019-01-04T03:20:50.895Z,87.88
2019-01-04T03:21:50.884Z,87.99
2019-01-04T03:22:50.875Z,88.30
2019-01-04T03:23:50.866Z,88.24
2019-01-04T03:24:50.865Z,87.78
2019-01-04T03:25:50.844Z,88.03
2019-01-04T03:26:50.833Z,88.09
2019-01-04T03:27:50.820Z,87.88
2019-01-04T03:28:50.807Z,88.24
2019-01-04T03:29:50.800Z,88.09
2019-01-04T03:30:50.793Z,87.88
2019-01-04T03:31:50.789Z,88.09
2019-01-04T03:32:50.768Z,87.78
2019-01-04T03:33:50.758Z,87.78
2019-01-04T03:34:50.744Z,87.93
2019-01-04T03:35:50.736Z,87.88
2019-01-04T03:36:50.724Z,87.37
2019-01-04T03:37:50.713Z,87.57
2019-01-04T03:38:50.701Z,87.78
2019-01-04T03:39:50.693Z,87.68
2019-01-04T03:40:50.683Z,87.47
2019-01-04T03:41:50.670Z,87.68
2019-01-04T03:42:50.658Z,87.68
2019-01-04T03:43:50.648Z,87.68
2019-01-04T03:44:50.638Z,87.57
2019-01-04T03:45:50.627Z,87.47
2019-01-04T03:46:50.619Z,87.57
2019-01-04T03:47:50.608Z,87.99
2019-01-04T03:48:50.594Z,87.68
2019-01-04T03:49:50.583Z,87.78
2019-01-04T03:50:50.572Z,87.37
2019-01-04T03:51:50.563Z,87.57
2019-01-04T03:52:50.583Z,87.68
2019-01-04T03:53:50.538Z,87.63
2019-01-04T03:54:50.533Z,87.57
2019-01-04T03:55:50.521Z,87.47
2019-01-04T03:56:50.506Z,87.37
2019-01-04T03:57:50.495Z,87.88
2019-01-04T03:58:50.488Z,87.47
2019-01-04T03:59:50.474Z,87.68
2019-01-04T04:00:50.462Z,87.88
2019-01-04T04:01:50.453Z,87.68
2019-01-04T04:02:50.450Z,87.99
2019-01-04T04:03:50.431Z,87.99
2019-01-04T04:04:50.420Z,87.88
2019-01-04T04:05:50.407Z,87.78
2019-01-04T04:06:50.395Z,87.88
2019-01-04T04:07:50.387Z,87.78
2019-01-04T04:08:50.378Z,87.78
2019-01-04T04:09:50.374Z,88.09
2019-01-04T04:10:50.372Z,88.20
2019-01-04T04:11:50.344Z,88.34
2019-01-04T04:12:50.332Z,88.30
2019-01-04T04:13:50.322Z,88.20
2019-01-04T04:14:50.312Z,88.20
2019-01-04T04:15:50.300Z,88.20
2019-01-04T04:16:50.288Z,88.20
2019-01-04T04:17:50.282Z,88.20
2019-01-04T04:18:50.266Z,88.20
2019-01-04T04:19:50.257Z,88.30
2019-01-04T04:20:50.251Z,88.20
2019-01-04T04:21:50.237Z,88.30
2019-01-04T04:22:50.230Z,88.20
2019-01-04T04:23:50.212Z,88.30
2019-01-04T04:24:50.201Z,88.30
2019-01-04T04:25:50.189Z,89.97
2019-01-04T04:26:50.180Z,90.66
2019-01-04T04:27:50.179Z,90.97
2019-01-04T04:28:50.157Z,90.35
2019-01-04T04:29:50.148Z,89.83
2019-01-04T04:30:50.139Z,89.31
2019-01-04T04:31:50.128Z,88.57
2019-01-04T04:32:50.116Z,88.16
2019-01-04T04:33:50.106Z,88.26
2019-01-04T04:34:50.093Z,88.37
2019-01-04T04:35:50.089Z,88.16
2019-01-04T04:36:50.073Z,88.16
2019-01-04T04:37:50.061Z,88.26
2019-01-04T04:38:50.066Z,88.16
2019-01-04T04:39:50.047Z,88.09
2019-01-04T04:40:50.028Z,88.26
2019-01-04T04:41:50.019Z,88.16
2019-01-04T04:42:50.027Z,88.26
2019-01-04T04:43:49.995Z,88.30
2019-01-04T04:44:50.033Z,88.16
2019-01-04T04:45:49.973Z,88.09
2019-01-04T04:46:49.961Z,88.16
2019-01-04T04:47:49.952Z,88.41
2019-01-04T04:48:49.940Z,89.24
2019-01-04T04:49:49.930Z,89.24
2019-01-04T04:50:49.925Z,89.14
2019-01-04T04:51:49.914Z,89.14
2019-01-04T04:52:49.899Z,89.24
2019-01-04T04:53:49.885Z,89.14
2019-01-04T04:54:49.881Z,89.14
2019-01-04T04:55:49.864Z,89.14
2019-01-04T04:56:49.852Z,89.14
2019-01-04T04:57:49.843Z,88.41
2019-01-04T04:59:09.478Z,88.51
2019-01-04T05:00:31.880Z,89.14
2019-01-04T05:01:31.855Z,89.14
2019-01-04T05:02:31.840Z,89.14
2019-01-04T05:03:31.834Z,88.93
2019-01-04T05:04:31.820Z,88.93
2019-01-04T05:05:31.812Z,89.14
2019-01-04T05:06:31.795Z,88.93
2019-01-04T05:07:31.787Z,89.03
2019-01-04T05:08:31.780Z,89.14
2019-01-04T05:09:31.767Z,89.14
2019-01-04T05:10:31.756Z,89.03
2019-01-04T05:11:31.741Z,88.41
2019-01-04T05:12:31.731Z,88.72
2019-01-04T05:13:31.719Z,90.50
2019-01-04T05:14:31.712Z,91.64
2019-01-04T05:15:31.701Z,92.33
2019-01-04T05:16:31.688Z,92.02
2019-01-04T05:17:31.680Z,91.91
2019-01-04T05:18:31.672Z,91.91
2019-01-04T05:19:31.661Z,91.60
2019-01-04T05:20:31.644Z,91.29
2019-01-04T05:21:31.633Z,91.18
2019-01-04T05:22:31.630Z,89.93
2019-01-04T05:23:31.611Z,89.62
2019-01-04T05:24:31.602Z,88.95
2019-01-04T05:25:31.587Z,89.16
2019-01-04T05:26:31.579Z,87.91
2019-01-04T05:27:31.566Z,87.63
2019-01-04T05:28:31.560Z,87.63
2019-01-04T05:29:31.546Z,87.74
2019-01-04T05:30:31.536Z,87.43
2019-01-04T05:31:31.524Z,87.53
2019-01-04T05:32:31.513Z,87.53
2019-01-04T05:33:31.501Z,87.53
2019-01-04T05:34:31.500Z,87.43
2019-01-04T05:35:31.485Z,87.32
2019-01-04T05:36:31.468Z,87.12
2019-01-04T05:37:31.461Z,87.26
2019-01-04T05:38:31.444Z,87.57
2019-01-04T05:39:31.439Z,87.47
2019-01-04T05:40:31.428Z,87.47
2019-01-04T05:41:31.413Z,87.26
2019-01-04T05:42:31.403Z,87.22
2019-01-04T05:43:31.398Z,87.22
2019-01-04T05:44:31.379Z,87.12
2019-01-04T05:45:31.371Z,87.15
2019-01-04T05:46:31.360Z,87.12
2019-01-04T05:47:31.355Z,87.22
2019-01-04T05:48:31.337Z,87.15
2019-01-04T05:49:31.333Z,87.01
2019-01-04T05:50:31.327Z,86.80
2019-01-04T05:51:31.304Z,87.15
2019-01-04T05:52:31.291Z,87.15
2019-01-04T05:53:31.282Z,87.05
2019-01-04T05:54:31.272Z,87.05
2019-01-04T05:55:31.260Z,87.05
2019-01-04T05:56:31.250Z,87.15
2019-01-04T05:57:31.239Z,87.05
2019-01-04T05:58:31.232Z,87.01
2019-01-04T05:59:31.218Z,87.05
2019-01-04T06:00:31.204Z,87.12
2019-01-04T06:01:31.196Z,87.15
2019-01-04T06:02:31.184Z,87.32
2019-01-04T06:03:31.174Z,87.37
2019-01-04T06:04:31.161Z,87.37
2019-01-04T06:05:31.150Z,87.32
2019-01-04T06:06:31.137Z,87.12
2019-01-04T06:07:31.132Z,87.26
2019-01-04T06:08:31.119Z,87.15
2019-01-04T06:09:31.108Z,87.05
2019-01-04T06:10:31.098Z,87.26
2019-01-04T06:11:31.087Z,87.32
2019-01-04T06:12:31.074Z,87.47
2019-01-04T06:13:31.068Z,87.37
2019-01-04T06:14:31.051Z,87.37
2019-01-04T06:15:31.042Z,87.47
2019-01-04T06:16:31.045Z,87.47
2019-01-04T06:17:31.019Z,87.43
2019-01-04T06:18:31.012Z,87.47
2019-01-04T06:19:30.997Z,87.47
2019-01-04T06:20:30.990Z,87.15
2019-01-04T06:21:30.976Z,87.43
2019-01-04T06:22:30.967Z,87.32
2019-01-04T06:23:30.950Z,87.47
2019-01-04T06:24:30.941Z,87.43
2019-01-04T06:25:30.930Z,87.43
2019-01-04T06:26:30.920Z,86.69
2019-01-04T06:27:30.909Z,86.59
2019-01-04T06:28:30.898Z,86.80
2019-01-04T06:29:30.887Z,86.59
2019-01-04T06:30:30.874Z,86.59
2019-01-04T06:31:30.865Z,86.59
2019-01-04T06:32:30.857Z,86.91
2019-01-04T06:33:30.843Z,86.59
2019-01-04T06:34:30.834Z,86.91
2019-01-04T06:35:30.819Z,86.80
2019-01-04T06:36:30.814Z,86.80
2019-01-04T06:37:30.799Z,86.91
2019-01-04T06:38:30.797Z,86.49
2019-01-04T06:39:30.777Z,86.69
2019-01-04T06:40:30.766Z,86.69
2019-01-04T06:41:30.755Z,86.59
2019-01-04T06:42:30.743Z,86.76
2019-01-04T06:43:30.732Z,86.24
2019-01-04T06:44:30.724Z,85.65
2019-01-04T06:45:30.712Z,86.18
2019-01-04T06:46:30.699Z,85.65
2019-01-04T06:47:30.705Z,86.66
2019-01-04T06:48:30.679Z,86.59
2019-01-04T06:49:30.666Z,86.80
2019-01-04T06:50:30.661Z,87.22
2019-01-04T06:51:30.685Z,87.07
2019-01-04T06:52:30.637Z,87.43
2019-01-04T06:53:30.622Z,87.53
2019-01-04T06:54:30.611Z,87.53
2019-01-04T06:55:30.600Z,87.74
2019-01-04T06:56:30.592Z,87.95
2019-01-04T06:57:30.578Z,88.47
2019-01-04T06:58:30.567Z,89.20
2019-01-04T06:59:30.557Z,88.89
2019-01-04T07:00:30.550Z,88.57
2019-01-04T07:01:30.537Z,88.68
2019-01-04T07:02:30.522Z,88.78
2019-01-04T07:03:30.510Z,88.68
2019-01-04T07:04:30.500Z,88.78
2019-01-04T07:05:31.711Z,88.57
2019-01-04T07:06:30.478Z,88.47
2019-01-04T07:07:30.471Z,88.37
2019-01-04T07:08:30.454Z,88.37
2019-01-04T07:09:30.445Z,88.68
2019-01-04T07:10:30.434Z,88.89
2019-01-04T07:11:30.425Z,88.95
2019-01-04T07:12:30.411Z,89.10
2019-01-04T07:13:30.398Z,88.26
2019-01-04T07:14:30.389Z,88.16
2019-01-04T07:15:30.394Z,88.57
2019-01-04T07:16:30.366Z,88.68
2019-01-04T07:17:30.359Z,89.31
2019-01-04T07:18:30.344Z,89.31
2019-01-04T07:19:30.333Z,89.51
2019-01-04T07:20:30.322Z,89.83
2019-01-04T07:21:30.329Z,90.56
2019-01-04T07:22:30.302Z,90.45
2019-01-04T07:23:30.290Z,90.20
2019-01-04T07:24:30.278Z,90.20
2019-01-04T07:25:30.266Z,90.25
2019-01-04T07:26:30.268Z,91.18
2019-01-04T07:27:30.244Z,91.39
2019-01-04T07:28:30.232Z,91.18
2019-01-04T07:29:30.222Z,91.29
2019-01-04T07:30:30.212Z,91.18
2019-01-04T07:31:30.202Z,91.60
2019-01-04T07:32:30.191Z,91.97
2019-01-04T07:33:30.177Z,91.97
2019-01-04T07:34:30.168Z,91.91
2019-01-04T07:35:30.155Z,91.91
2019-01-04T07:36:30.148Z,92.54
2019-01-04T07:37:30.134Z,92.02
2019-01-04T07:38:30.125Z,92.54
2019-01-04T07:39:30.117Z,92.71
2019-01-04T07:40:30.100Z,92.65
2019-01-04T07:41:30.089Z,92.44
2019-01-04T07:42:30.084Z,92.54
2019-01-04T07:43:30.071Z,92.65
2019-01-04T07:44:30.060Z,92.65
2019-01-04T07:45:30.047Z,92.65
2019-01-04T07:46:30.035Z,92.54
2019-01-04T07:47:30.022Z,92.44
2019-01-04T07:48:30.012Z,92.40
2019-01-04T07:49:30.006Z,92.44
2019-01-04T07:50:29.989Z,92.54
2019-01-04T07:51:29.980Z,92.33
2019-01-04T07:52:29.967Z,92.12
2019-01-04T07:53:29.957Z,92.33
2019-01-04T07:54:29.947Z,92.18
2019-01-04T07:55:29.935Z,92.08
2019-01-04T07:56:29.925Z,92.40
2019-01-04T07:57:29.914Z,92.18
2019-01-04T07:58:29.904Z,92.22
2019-01-04T07:59:29.890Z,92.02
2019-01-04T08:00:29.880Z,91.77
2019-01-04T08:01:29.870Z,91.87
2019-01-04T08:02:29.858Z,92.08
2019-01-04T08:03:29.850Z,92.18
2019-01-04T08:04:29.839Z,92.12
2019-01-04T08:05:29.831Z,92.33
2019-01-04T08:06:29.813Z,92.22
2019-01-04T08:07:29.801Z,92.44
2019-01-04T08:08:29.791Z,92.44
2019-01-04T08:09:29.779Z,92.18
2019-01-04T08:10:29.769Z,92.54
2019-01-04T08:11:29.757Z,92.40
2019-01-04T08:12:29.746Z,92.54
2019-01-04T08:13:29.737Z,93.37
2019-01-04T08:14:29.724Z,93.16
2019-01-04T08:15:29.714Z,93.16
2019-01-04T08:16:29.703Z,92.85
2019-01-04T08:17:29.691Z,92.81
2019-01-04T08:18:29.679Z,93.33
2019-01-04T08:19:29.667Z,93.12
2019-01-04T08:20:29.658Z,93.23
2019-01-04T08:21:29.647Z,93.44
2019-01-04T08:22:29.643Z,93.65
2019-01-04T08:23:29.624Z,93.54
2019-01-04T08:24:29.612Z,93.85
2019-01-04T08:25:29.602Z,94.37
2019-01-04T08:26:29.595Z,94.17
2019-01-04T08:27:29.578Z,94.17
2019-01-04T08:28:29.570Z,94.17
2019-01-04T08:29:29.557Z,94.33
2019-01-04T08:30:29.548Z,94.12
2019-01-04T08:31:29.539Z,93.91
2019-01-04T08:32:29.528Z,94.27
2019-01-04T08:33:29.514Z,93.75
2019-01-04T08:34:29.505Z,93.71
2019-01-04T08:35:29.493Z,93.60
2019-01-04T08:36:29.478Z,94.02
2019-01-04T08:37:29.469Z,94.06
2019-01-04T08:38:29.481Z,94.17
2019-01-04T08:39:29.446Z,93.60
2019-01-04T08:40:29.439Z,93.60
2019-01-04T08:41:29.425Z,93.40
2019-01-04T08:42:29.413Z,93.60
2019-01-04T08:43:29.401Z,93.96
2019-01-04T08:44:29.392Z,96.11
2019-01-04T08:45:29.379Z,99.18
2019-01-04T08:46:29.367Z,99.87
2019-01-04T08:47:29.355Z,99.99
2019-01-04T08:48:29.345Z,99.99
2019-01-04T08:49:29.335Z,99.99
2019-01-04T08:50:29.323Z,99.46
2019-01-04T08:51:29.313Z,97.03
2019-01-04T08:52:29.300Z,95.26
2019-01-04T08:53:29.292Z,93.91
2019-01-04T08:54:29.281Z,92.14
2019-01-04T08:55:29.267Z,91.58
2019-01-04T08:56:29.258Z,90.85
2019-01-04T08:57:29.243Z,90.54
2019-01-04T08:58:29.232Z,89.56
2019-01-04T08:59:29.227Z,89.08
2019-01-04T09:00:29.212Z,88.62
2019-01-04T09:01:29.201Z,88.84
2019-01-04T09:02:29.193Z,87.79
2019-01-04T09:03:29.179Z,87.17
2019-01-04T09:04:29.167Z,86.65
2019-01-04T09:05:29.156Z,87.07
2019-01-04T09:06:29.145Z,87.17
2019-01-04T09:07:29.135Z,87.63
2019-01-04T09:08:29.123Z,87.42
2019-01-04T09:09:29.113Z,87.94
2019-01-04T09:10:29.101Z,88.52
2019-01-04T09:11:29.090Z,87.79
2019-01-04T09:12:29.078Z,88.10
2019-01-04T09:13:29.067Z,87.52
2019-01-04T09:14:29.057Z,87.42
2019-01-04T09:15:29.047Z,87.42
2019-01-04T09:16:29.037Z,87.11
2019-01-04T09:17:29.023Z,87.42
2019-01-04T09:18:29.015Z,87.32
2019-01-04T09:19:29.005Z,87.56
2019-01-04T09:20:28.988Z,87.63
2019-01-04T09:21:28.979Z,87.94
2019-01-04T09:22:28.966Z,88.77
2019-01-04T09:23:28.956Z,88.56
2019-01-04T09:24:28.945Z,88.46
2019-01-04T09:25:28.933Z,89.08
2019-01-04T09:26:28.923Z,89.33
2019-01-04T09:27:28.914Z,89.54
2019-01-04T09:28:28.902Z,89.64
2019-01-04T09:29:28.889Z,89.64
2019-01-04T09:30:28.878Z,90.16
2019-01-04T09:31:28.868Z,90.31
2019-01-04T09:32:28.857Z,90.52
2019-01-04T09:33:28.848Z,90.20
2019-01-04T09:34:28.841Z,90.93
2019-01-04T09:35:28.823Z,90.93
2019-01-04T09:36:28.813Z,90.83
2019-01-04T09:37:28.801Z,90.93
2019-01-04T09:38:28.912Z,90.93
2019-01-04T09:39:28.781Z,90.83
2019-01-04T09:40:28.770Z,91.14
2019-01-04T09:41:28.759Z,91.25
2019-01-04T09:42:28.748Z,91.46
2019-01-04T09:43:28.735Z,91.25
2019-01-04T09:44:28.726Z,91.66
2019-01-04T09:45:28.716Z,91.66
2019-01-04T09:46:28.704Z,92.91
2019-01-04T09:47:28.691Z,94.16
2019-01-04T09:48:28.680Z,94.06
2019-01-04T09:49:28.670Z,93.54
2019-01-04T09:50:28.657Z,93.95
2019-01-04T09:51:28.649Z,95.05
2019-01-04T09:52:28.637Z,95.83
2019-01-04T09:53:28.625Z,93.95
2019-01-04T09:54:28.614Z,94.01
2019-01-04T09:55:28.604Z,94.12
2019-01-04T09:56:28.593Z,92.97
2019-01-04T09:57:29.189Z,92.76
2019-01-04T09:58:28.573Z,92.45
2019-01-04T09:59:28.561Z,92.14
2019-01-04T10:00:28.547Z,92.18
2019-01-04T10:01:28.536Z,92.24
2019-01-04T10:02:28.527Z,92.39
2019-01-04T10:03:28.515Z,92.18
2019-01-04T10:04:28.509Z,92.18
2019-01-04T10:05:28.492Z,92.18
2019-01-04T10:06:28.482Z,92.18
2019-01-04T10:07:28.471Z,92.18
2019-01-04T10:08:28.459Z,92.08
2019-01-04T10:09:28.450Z,92.18
2019-01-04T10:10:28.438Z,92.18
2019-01-04T10:11:28.426Z,91.87
2019-01-04T10:12:28.422Z,92.18
2019-01-04T10:13:28.402Z,92.18
2019-01-04T10:14:28.397Z,92.18
2019-01-04T10:15:28.385Z,91.97
2019-01-04T10:16:28.371Z,91.97
2019-01-04T10:17:28.361Z,92.08
2019-01-04T10:18:28.348Z,92.39
2019-01-04T10:19:28.338Z,92.08
2019-01-04T10:20:28.378Z,92.70
2019-01-04T10:21:28.315Z,92.91
2019-01-04T10:22:28.310Z,93.23
2019-01-04T10:23:28.294Z,93.43
2019-01-04T10:24:28.281Z,93.64
2019-01-04T10:25:28.271Z,93.43
2019-01-04T10:26:28.262Z,93.64
2019-01-04T10:27:28.252Z,93.54
2019-01-04T10:28:28.236Z,93.74
2019-01-04T10:29:28.226Z,93.33
2019-01-04T10:30:28.216Z,93.23
2019-01-04T10:31:28.204Z,93.12
2019-01-04T10:32:28.195Z,93.12
2019-01-04T10:33:28.182Z,93.23
2019-01-04T10:34:28.173Z,93.33
2019-01-04T10:35:28.159Z,94.12
2019-01-04T10:36:28.152Z,94.06
2019-01-04T10:37:28.147Z,94.12
2019-01-04T10:38:28.128Z,93.64
2019-01-04T10:39:28.117Z,94.12
2019-01-04T10:40:28.106Z,93.70
2019-01-04T10:41:28.093Z,93.91
2019-01-04T10:42:28.082Z,94.12
2019-01-04T10:43:28.073Z,93.70
2019-01-04T10:44:28.062Z,93.49
2019-01-04T10:45:28.049Z,93.07
2019-01-04T10:46:28.040Z,93.18
2019-01-04T10:47:28.026Z,93.18
2019-01-04T10:48:28.018Z,93.33
2019-01-04T10:49:28.062Z,93.33
2019-01-04T10:50:27.994Z,93.07
2019-01-04T10:51:27.981Z,92.86
2019-01-04T10:52:27.974Z,93.12
2019-01-04T10:53:27.965Z,93.12
2019-01-04T10:54:27.951Z,93.54
2019-01-04T10:55:27.943Z,94.12
2019-01-04T10:56:27.926Z,94.16
2019-01-04T10:57:27.918Z,93.95
2019-01-04T10:58:27.906Z,93.70
2019-01-04T10:59:27.894Z,93.74
2019-01-04T11:00:27.882Z,93.39
2019-01-04T11:01:27.873Z,93.49
2019-01-04T11:02:27.862Z,93.49
2019-01-04T11:03:27.857Z,93.39
2019-01-04T11:04:27.840Z,93.39
2019-01-04T11:05:27.828Z,94.12
2019-01-04T11:06:27.817Z,93.91
2019-01-04T11:07:27.808Z,94.12
2019-01-04T11:08:27.794Z,93.91
2019-01-04T11:09:27.781Z,94.12
2019-01-04T11:10:27.780Z,93.80
2019-01-04T11:11:27.768Z,93.91
2019-01-04T11:12:27.752Z,94.22
2019-01-04T11:13:27.743Z,94.12
2019-01-04T11:14:27.728Z,94.12
2019-01-04T11:15:27.717Z,93.60
2019-01-04T11:16:27.741Z,93.80
2019-01-04T11:17:27.696Z,93.49
2019-01-04T11:18:27.685Z,93.03
2019-01-04T11:19:27.674Z,93.87
2019-01-04T11:20:27.661Z,93.87
2019-01-04T11:21:27.650Z,93.87
2019-01-04T11:22:27.841Z,93.87
2019-01-04T11:23:27.628Z,94.59
2019-01-04T11:24:27.617Z,95.21
2019-01-04T11:25:27.604Z,95.21
2019-01-04T11:26:27.596Z,95.73
2019-01-04T11:27:27.588Z,95.73
2019-01-04T11:28:27.576Z,95.73
2019-01-04T11:29:27.561Z,95.53
2019-01-04T11:30:27.554Z,93.76
2019-01-04T11:31:27.548Z,94.70
2019-01-04T11:32:27.528Z,93.76
2019-01-04T11:33:27.525Z,93.97
2019-01-04T11:34:27.509Z,94.07
2019-01-04T11:35:27.496Z,93.55
2019-01-04T11:36:27.484Z,93.55
2019-01-04T11:37:27.473Z,93.45
2019-01-04T11:38:27.462Z,93.55
2019-01-04T11:39:27.455Z,93.35
2019-01-04T11:40:27.439Z,93.55
2019-01-04T11:41:27.431Z,93.45
2019-01-04T11:42:27.416Z,93.72
2019-01-04T11:43:27.407Z,93.45
2019-01-04T11:44:27.395Z,93.55
2019-01-04T11:45:27.384Z,93.35
2019-01-04T11:46:27.375Z,94.18
2019-01-04T11:47:27.360Z,94.07
2019-01-04T11:48:27.350Z,93.24
2019-01-04T11:49:27.339Z,93.55
2019-01-04T11:50:27.333Z,93.45
2019-01-04T11:51:27.318Z,93.55
2019-01-04T11:52:31.132Z,93.66
2019-01-04T11:53:27.296Z,93.55
2019-01-04T11:54:27.284Z,93.87
2019-01-04T11:55:27.272Z,93.66
2019-01-04T11:56:27.263Z,93.66
2019-01-04T11:57:27.249Z,93.51
2019-01-04T11:58:27.240Z,93.24
2019-01-04T11:59:27.233Z,93.76
2019-01-04T12:00:27.220Z,93.35
2019-01-04T12:01:27.210Z,94.13
2019-01-04T12:02:27.193Z,94.07
2019-01-04T12:03:27.184Z,93.87
2019-01-04T12:04:27.174Z,93.87
2019-01-04T12:05:27.164Z,94.24
2019-01-04T12:06:27.347Z,94.24
2019-01-04T12:07:27.141Z,93.87
2019-01-04T12:08:27.130Z,94.07
2019-01-04T12:09:27.120Z,94.24
2019-01-04T12:10:27.106Z,94.18
2019-01-04T12:11:27.100Z,93.24
2019-01-04T12:12:27.084Z,93.35
2019-01-04T12:13:27.074Z,93.35
2019-01-04T12:14:27.069Z,93.45
2019-01-04T12:15:27.049Z,93.35
2019-01-04T12:16:27.037Z,93.35
2019-01-04T12:17:27.029Z,93.24
2019-01-04T12:18:27.018Z,93.14
2019-01-04T12:19:27.007Z,93.45
2019-01-04T12:20:26.997Z,93.14
2019-01-04T12:21:26.984Z,93.91
2019-01-04T12:22:26.972Z,94.32
2019-01-04T12:23:26.985Z,94.07
2019-01-04T12:24:26.953Z,93.87
2019-01-04T12:25:26.940Z,93.87
2019-01-04T12:26:26.929Z,94.59
2019-01-04T12:27:26.919Z,94.07
2019-01-04T12:28:26.911Z,94.64
2019-01-04T12:29:26.894Z,94.59
2019-01-04T12:30:26.886Z,93.97
2019-01-04T12:31:26.873Z,94.22
2019-01-04T12:32:26.863Z,94.59
2019-01-04T12:33:26.851Z,93.97
2019-01-04T12:34:26.841Z,94.28
2019-01-04T12:35:26.830Z,93.97
2019-01-04T12:36:26.819Z,93.97
2019-01-04T12:37:26.810Z,93.97
2019-01-04T12:38:26.797Z,94.28
2019-01-04T12:39:26.788Z,94.59
2019-01-04T12:40:26.773Z,95.01
2019-01-04T12:41:26.763Z,95.21
2019-01-04T12:42:26.756Z,94.59
2019-01-04T12:43:26.741Z,95.11
2019-01-04T12:44:26.731Z,94.49
2019-01-04T12:45:26.724Z,95.42
2019-01-04T12:46:26.742Z,94.80
2019-01-04T12:47:26.696Z,94.70
2019-01-04T12:48:26.685Z,94.90
2019-01-04T12:49:26.672Z,95.73
2019-01-04T12:50:26.664Z,95.11
2019-01-04T12:51:26.654Z,95.36
2019-01-04T12:52:26.641Z,95.32
2019-01-04T12:53:26.628Z,95.32
2019-01-04T12:54:26.622Z,96.04
2019-01-04T12:55:26.610Z,95.21